sensor_id;sensor_type;location;lat;lon;timestamp;P1;durP1;ratioP1;P2;durP2;ratioP2
18048;SDS011;9149;47.002;8.604;2023-01-08T00:02:21;4.73;;;2.40;;
18048;SDS011;9149;47.002;8.604;2023-01-08T00:04:48;5.00;;;3.13;;
18048;SDS011;9149;47.002;8.604;2023-01-08T00:07:16;6.07;;;3.10;;
18048;SDS011;9149;47.002;8.604;2023-01-08T00:09:44;4.23;;;2.67;;
18048;SDS011;9149;47.002;8.604;2023-01-08T00:12:14;5.33;;;2.83;;
18048;SDS011;9149;47.002;8.604;2023-01-08T00:14:42;5.17;;;2.83;;
18048;SDS011;9149;47.002;8.604;2023-01-08T00:17:10;4.47;;;2.80;;
18048;SDS011;9149;47.002;8.604;2023-01-08T00:19:37;3.43;;;2.33;;
18048;SDS011;9149;47.002;8.604;2023-01-08T00:22:07;4.37;;;2.53;;
18048;SDS011;9149;47.002;8.604;2023-01-08T00:24:35;4.23;;;2.50;;
18048;SDS011;9149;47.002;8.604;2023-01-08T00:27:02;3.23;;;2.60;;
18048;SDS011;9149;47.002;8.604;2023-01-08T00:29:31;3.90;;;2.80;;
18048;SDS011;9149;47.002;8.604;2023-01-08T00:31:59;4.93;;;3.30;;
18048;SDS011;9149;47.002;8.604;2023-01-08T00:34:27;3.23;;;2.63;;
18048;SDS011;9149;47.002;8.604;2023-01-08T00:36:54;4.57;;;2.63;;
18048;SDS011;9149;47.002;8.604;2023-01-08T00:39:22;14.23;;;2.93;;
18048;SDS011;9149;47.002;8.604;2023-01-08T00:41:50;6.20;;;3.73;;
18048;SDS011;9149;47.002;8.604;2023-01-08T00:44:17;5.97;;;3.63;;
18048;SDS011;9149;47.002;8.604;2023-01-08T00:46:46;3.80;;;3.00;;
18048;SDS011;9149;47.002;8.604;2023-01-08T00:49:14;4.60;;;3.17;;
18048;SDS011;9149;47.002;8.604;2023-01-08T00:51:42;6.67;;;3.23;;
18048;SDS011;9149;47.002;8.604;2023-01-08T00:54:09;2.87;;;2.50;;
18048;SDS011;9149;47.002;8.604;2023-01-08T00:56:37;6.37;;;3.20;;
18048;SDS011;9149;47.002;8.604;2023-01-08T00:59:05;2.43;;;2.23;;
18048;SDS011;9149;47.002;8.604;2023-01-08T01:01:33;7.43;;;2.50;;
18048;SDS011;9149;47.002;8.604;2023-01-08T01:04:02;2.17;;;1.90;;
18048;SDS011;9149;47.002;8.604;2023-01-08T01:06:30;2.30;;;1.60;;
18048;SDS011;9149;47.002;8.604;2023-01-08T01:08:57;7.23;;;1.77;;
18048;SDS011;9149;47.002;8.604;2023-01-08T01:11:26;1.73;;;1.60;;
18048;SDS011;9149;47.002;8.604;2023-01-08T01:13:54;2.30;;;1.97;;
18048;SDS011;9149;47.002;8.604;2023-01-08T01:16:22;3.93;;;2.23;;
18048;SDS011;9149;47.002;8.604;2023-01-08T01:18:50;3.10;;;2.13;;
18048;SDS011;9149;47.002;8.604;2023-01-08T01:21:22;3.83;;;2.43;;
18048;SDS011;9149;47.002;8.604;2023-01-08T01:24:09;2.77;;;2.37;;
18048;SDS011;9149;47.002;8.604;2023-01-08T01:26:38;2.03;;;1.83;;
18048;SDS011;9149;47.002;8.604;2023-01-08T01:29:06;3.60;;;2.40;;
18048;SDS011;9149;47.002;8.604;2023-01-08T01:31:33;3.33;;;2.37;;
18048;SDS011;9149;47.002;8.604;2023-01-08T01:34:01;5.13;;;2.20;;
18048;SDS011;9149;47.002;8.604;2023-01-08T01:36:30;5.23;;;2.80;;
18048;SDS011;9149;47.002;8.604;2023-01-08T01:38:58;4.70;;;3.07;;
18048;SDS011;9149;47.002;8.604;2023-01-08T01:41:27;4.23;;;2.83;;
18048;SDS011;9149;47.002;8.604;2023-01-08T01:43:55;3.03;;;2.13;;
18048;SDS011;9149;47.002;8.604;2023-01-08T01:46:25;6.63;;;2.90;;
18048;SDS011;9149;47.002;8.604;2023-01-08T01:48:55;3.37;;;2.47;;
18048;SDS011;9149;47.002;8.604;2023-01-08T01:51:24;6.37;;;2.90;;
18048;SDS011;9149;47.002;8.604;2023-01-08T01:53:56;3.00;;;1.70;;
18048;SDS011;9149;47.002;8.604;2023-01-08T01:56:25;3.53;;;2.10;;
18048;SDS011;9149;47.002;8.604;2023-01-08T01:58:53;2.50;;;1.87;;
18048;SDS011;9149;47.002;8.604;2023-01-08T02:01:21;2.97;;;2.13;;
18048;SDS011;9149;47.002;8.604;2023-01-08T02:03:50;3.37;;;1.93;;
18048;SDS011;9149;47.002;8.604;2023-01-08T02:06:20;4.80;;;1.97;;
18048;SDS011;9149;47.002;8.604;2023-01-08T02:08:51;4.57;;;2.17;;
18048;SDS011;9149;47.002;8.604;2023-01-08T02:11:24;4.17;;;2.20;;
18048;SDS011;9149;47.002;8.604;2023-01-08T02:13:54;4.00;;;2.60;;
18048;SDS011;9149;47.002;8.604;2023-01-08T02:16:24;4.47;;;2.80;;
18048;SDS011;9149;47.002;8.604;2023-01-08T02:18:54;5.63;;;3.77;;
18048;SDS011;9149;47.002;8.604;2023-01-08T02:21:25;5.57;;;3.50;;
18048;SDS011;9149;47.002;8.604;2023-01-08T02:23:57;8.63;;;3.03;;
18048;SDS011;9149;47.002;8.604;2023-01-08T02:26:28;5.43;;;3.27;;
18048;SDS011;9149;47.002;8.604;2023-01-08T02:28:57;5.43;;;3.13;;
18048;SDS011;9149;47.002;8.604;2023-01-08T02:31:26;5.00;;;2.90;;
18048;SDS011;9149;47.002;8.604;2023-01-08T02:33:55;2.90;;;2.27;;
18048;SDS011;9149;47.002;8.604;2023-01-08T02:36:25;3.33;;;2.57;;
18048;SDS011;9149;47.002;8.604;2023-01-08T02:41:34;5.57;;;2.47;;
18048;SDS011;9149;47.002;8.604;2023-01-08T02:44:06;4.53;;;2.63;;
18048;SDS011;9149;47.002;8.604;2023-01-08T02:46:34;2.90;;;2.60;;
18048;SDS011;9149;47.002;8.604;2023-01-08T02:49:04;1.93;;;1.70;;
18048;SDS011;9149;47.002;8.604;2023-01-08T02:51:34;1.50;;;1.40;;
18048;SDS011;9149;47.002;8.604;2023-01-08T02:54:06;2.17;;;1.90;;
18048;SDS011;9149;47.002;8.604;2023-01-08T02:56:36;2.00;;;1.60;;
18048;SDS011;9149;47.002;8.604;2023-01-08T02:59:06;2.73;;;1.50;;
18048;SDS011;9149;47.002;8.604;2023-01-08T03:01:34;2.50;;;1.70;;
18048;SDS011;9149;47.002;8.604;2023-01-08T03:04:03;1.53;;;1.40;;
18048;SDS011;9149;47.002;8.604;2023-01-08T03:06:32;1.30;;;1.20;;
18048;SDS011;9149;47.002;8.604;2023-01-08T03:09:00;1.63;;;0.97;;
18048;SDS011;9149;47.002;8.604;2023-01-08T03:11:28;1.57;;;1.10;;
18048;SDS011;9149;47.002;8.604;2023-01-08T03:14:00;2.80;;;1.03;;
18048;SDS011;9149;47.002;8.604;2023-01-08T03:16:29;1.10;;;0.90;;
18048;SDS011;9149;47.002;8.604;2023-01-08T03:19:00;1.00;;;1.00;;
18048;SDS011;9149;47.002;8.604;2023-01-08T03:21:29;1.23;;;1.00;;
18048;SDS011;9149;47.002;8.604;2023-01-08T03:23:58;1.50;;;1.00;;
18048;SDS011;9149;47.002;8.604;2023-01-08T03:26:26;1.00;;;1.00;;
18048;SDS011;9149;47.002;8.604;2023-01-08T03:28:54;1.00;;;1.00;;
18048;SDS011;9149;47.002;8.604;2023-01-08T03:31:24;1.10;;;1.00;;
18048;SDS011;9149;47.002;8.604;2023-01-08T03:33:53;0.90;;;0.90;;
18048;SDS011;9149;47.002;8.604;2023-01-08T03:36:23;1.20;;;1.10;;
18048;SDS011;9149;47.002;8.604;2023-01-08T03:38:52;1.37;;;1.13;;
18048;SDS011;9149;47.002;8.604;2023-01-08T03:41:22;1.07;;;1.07;;
18048;SDS011;9149;47.002;8.604;2023-01-08T03:43:51;0.97;;;0.90;;
18048;SDS011;9149;47.002;8.604;2023-01-08T03:46:19;3.20;;;1.20;;
18048;SDS011;9149;47.002;8.604;2023-01-08T03:48:49;1.43;;;1.33;;
18048;SDS011;9149;47.002;8.604;2023-01-08T03:51:17;2.27;;;1.60;;
18048;SDS011;9149;47.002;8.604;2023-01-08T03:53:45;1.70;;;1.60;;
18048;SDS011;9149;47.002;8.604;2023-01-08T03:56:14;2.40;;;1.80;;
18048;SDS011;9149;47.002;8.604;2023-01-08T03:58:42;2.10;;;1.87;;
18048;SDS011;9149;47.002;8.604;2023-01-08T04:01:09;2.63;;;1.70;;
18048;SDS011;9149;47.002;8.604;2023-01-08T04:03:37;3.10;;;1.80;;
18048;SDS011;9149;47.002;8.604;2023-01-08T04:06:07;1.97;;;1.50;;
18048;SDS011;9149;47.002;8.604;2023-01-08T04:08:34;1.67;;;1.30;;
18048;SDS011;9149;47.002;8.604;2023-01-08T04:11:02;2.20;;;1.70;;
18048;SDS011;9149;47.002;8.604;2023-01-08T04:13:30;1.30;;;1.20;;
18048;SDS011;9149;47.002;8.604;2023-01-08T04:15:57;1.80;;;1.33;;
18048;SDS011;9149;47.002;8.604;2023-01-08T04:18:25;1.87;;;1.50;;
18048;SDS011;9149;47.002;8.604;2023-01-08T04:20:53;2.17;;;1.50;;
18048;SDS011;9149;47.002;8.604;2023-01-08T04:23:22;1.00;;;1.00;;
18048;SDS011;9149;47.002;8.604;2023-01-08T04:25:50;1.40;;;1.30;;
18048;SDS011;9149;47.002;8.604;2023-01-08T04:28:17;1.60;;;1.50;;
18048;SDS011;9149;47.002;8.604;2023-01-08T04:30:45;1.80;;;1.50;;
18048;SDS011;9149;47.002;8.604;2023-01-08T04:33:13;1.67;;;1.20;;
18048;SDS011;9149;47.002;8.604;2023-01-08T04:35:40;2.30;;;1.40;;
18048;SDS011;9149;47.002;8.604;2023-01-08T04:38:08;1.30;;;1.20;;
18048;SDS011;9149;47.002;8.604;2023-01-08T04:40:38;3.47;;;1.43;;
18048;SDS011;9149;47.002;8.604;2023-01-08T04:43:06;2.77;;;1.73;;
18048;SDS011;9149;47.002;8.604;2023-01-08T04:45:34;1.50;;;1.40;;
18048;SDS011;9149;47.002;8.604;2023-01-08T04:48:01;1.80;;;1.47;;
18048;SDS011;9149;47.002;8.604;2023-01-08T04:50:29;2.77;;;1.40;;
18048;SDS011;9149;47.002;8.604;2023-01-08T04:52:57;1.40;;;1.30;;
18048;SDS011;9149;47.002;8.604;2023-01-08T04:55:25;2.43;;;1.67;;
18048;SDS011;9149;47.002;8.604;2023-01-08T04:57:54;2.50;;;1.80;;
18048;SDS011;9149;47.002;8.604;2023-01-08T05:00:21;2.97;;;1.60;;
18048;SDS011;9149;47.002;8.604;2023-01-08T05:02:49;2.73;;;1.83;;
18048;SDS011;9149;47.002;8.604;2023-01-08T05:05:17;2.97;;;1.70;;
18048;SDS011;9149;47.002;8.604;2023-01-08T05:07:45;3.07;;;1.70;;
18048;SDS011;9149;47.002;8.604;2023-01-08T05:10:13;1.87;;;1.40;;
18048;SDS011;9149;47.002;8.604;2023-01-08T05:12:41;1.87;;;1.50;;
18048;SDS011;9149;47.002;8.604;2023-01-08T05:15:10;2.70;;;1.80;;
18048;SDS011;9149;47.002;8.604;2023-01-08T05:17:37;2.67;;;1.67;;
18048;SDS011;9149;47.002;8.604;2023-01-08T05:20:05;2.50;;;1.50;;
18048;SDS011;9149;47.002;8.604;2023-01-08T05:22:33;1.13;;;1.13;;
18048;SDS011;9149;47.002;8.604;2023-01-08T05:25:01;1.70;;;1.33;;
18048;SDS011;9149;47.002;8.604;2023-01-08T05:27:29;4.10;;;1.40;;
18048;SDS011;9149;47.002;8.604;2023-01-08T05:29:57;2.10;;;1.10;;
18048;SDS011;9149;47.002;8.604;2023-01-08T05:32:26;2.63;;;1.80;;
18048;SDS011;9149;47.002;8.604;2023-01-08T05:34:53;1.73;;;1.50;;
18048;SDS011;9149;47.002;8.604;2023-01-08T05:37:21;6.63;;;1.37;;
18048;SDS011;9149;47.002;8.604;2023-01-08T05:39:49;1.97;;;1.50;;
18048;SDS011;9149;47.002;8.604;2023-01-08T05:42:16;1.30;;;1.20;;
18048;SDS011;9149;47.002;8.604;2023-01-08T05:44:44;3.33;;;1.40;;
18048;SDS011;9149;47.002;8.604;2023-01-08T05:47:12;2.00;;;1.40;;
18048;SDS011;9149;47.002;8.604;2023-01-08T05:49:41;2.30;;;1.50;;
18048;SDS011;9149;47.002;8.604;2023-01-08T05:52:08;1.20;;;1.10;;
18048;SDS011;9149;47.002;8.604;2023-01-08T05:54:36;1.77;;;1.33;;
18048;SDS011;9149;47.002;8.604;2023-01-08T05:57:04;3.43;;;1.50;;
18048;SDS011;9149;47.002;8.604;2023-01-08T05:59:32;1.67;;;1.40;;
18048;SDS011;9149;47.002;8.604;2023-01-08T06:01:59;1.60;;;1.50;;
18048;SDS011;9149;47.002;8.604;2023-01-08T06:04:27;1.27;;;1.17;;
18048;SDS011;9149;47.002;8.604;2023-01-08T06:06:56;2.00;;;1.43;;
18048;SDS011;9149;47.002;8.604;2023-01-08T06:09:24;2.07;;;1.40;;
18048;SDS011;9149;47.002;8.604;2023-01-08T06:11:52;4.30;;;1.30;;
18048;SDS011;9149;47.002;8.604;2023-01-08T06:14:19;2.53;;;1.30;;
18048;SDS011;9149;47.002;8.604;2023-01-08T06:16:47;1.40;;;1.30;;
18048;SDS011;9149;47.002;8.604;2023-01-08T06:19:14;1.50;;;1.40;;
18048;SDS011;9149;47.002;8.604;2023-01-08T06:21:44;5.67;;;1.60;;
18048;SDS011;9149;47.002;8.604;2023-01-08T06:24:13;1.97;;;1.47;;
18048;SDS011;9149;47.002;8.604;2023-01-08T06:26:41;1.70;;;1.40;;
18048;SDS011;9149;47.002;8.604;2023-01-08T06:29:08;1.87;;;1.20;;
18048;SDS011;9149;47.002;8.604;2023-01-08T06:31:36;1.80;;;1.37;;
18048;SDS011;9149;47.002;8.604;2023-01-08T06:34:04;2.13;;;1.50;;
18048;SDS011;9149;47.002;8.604;2023-01-08T06:36:31;1.43;;;1.30;;
18048;SDS011;9149;47.002;8.604;2023-01-08T06:38:59;1.50;;;1.30;;
18048;SDS011;9149;47.002;8.604;2023-01-08T06:41:28;2.07;;;1.50;;
18048;SDS011;9149;47.002;8.604;2023-01-08T06:43:56;9.30;;;1.70;;
18048;SDS011;9149;47.002;8.604;2023-01-08T06:46:24;2.33;;;1.43;;
18048;SDS011;9149;47.002;8.604;2023-01-08T06:48:52;2.07;;;1.70;;
18048;SDS011;9149;47.002;8.604;2023-01-08T06:51:20;3.13;;;1.70;;
18048;SDS011;9149;47.002;8.604;2023-01-08T06:53:47;3.67;;;1.60;;
18048;SDS011;9149;47.002;8.604;2023-01-08T06:56:15;1.93;;;1.40;;
18048;SDS011;9149;47.002;8.604;2023-01-08T06:58:44;3.23;;;1.87;;
18048;SDS011;9149;47.002;8.604;2023-01-08T07:01:12;7.93;;;1.50;;
18048;SDS011;9149;47.002;8.604;2023-01-08T07:03:40;1.80;;;1.57;;
18048;SDS011;9149;47.002;8.604;2023-01-08T07:06:08;1.73;;;1.40;;
18048;SDS011;9149;47.002;8.604;2023-01-08T07:08:39;3.47;;;2.20;;
18048;SDS011;9149;47.002;8.604;2023-01-08T07:11:07;2.90;;;1.93;;
18048;SDS011;9149;47.002;8.604;2023-01-08T07:13:34;2.43;;;1.97;;
18048;SDS011;9149;47.002;8.604;2023-01-08T07:16:05;2.20;;;2.00;;
18048;SDS011;9149;47.002;8.604;2023-01-08T07:18:34;3.93;;;2.23;;
18048;SDS011;9149;47.002;8.604;2023-01-08T07:21:02;2.57;;;2.00;;
18048;SDS011;9149;47.002;8.604;2023-01-08T07:23:30;5.07;;;2.30;;
18048;SDS011;9149;47.002;8.604;2023-01-08T07:25:58;3.40;;;2.10;;
18048;SDS011;9149;47.002;8.604;2023-01-08T07:28:26;3.93;;;2.50;;
18048;SDS011;9149;47.002;8.604;2023-01-08T07:30:54;2.57;;;2.10;;
18048;SDS011;9149;47.002;8.604;2023-01-08T07:33:23;3.23;;;1.83;;
18048;SDS011;9149;47.002;8.604;2023-01-08T07:35:51;2.83;;;1.80;;
18048;SDS011;9149;47.002;8.604;2023-01-08T07:38:19;3.60;;;2.40;;
18048;SDS011;9149;47.002;8.604;2023-01-08T07:40:47;2.50;;;1.90;;
18048;SDS011;9149;47.002;8.604;2023-01-08T07:43:15;3.63;;;1.90;;
18048;SDS011;9149;47.002;8.604;2023-01-08T07:45:43;2.63;;;1.97;;
18048;SDS011;9149;47.002;8.604;2023-01-08T07:48:10;3.10;;;1.90;;
18048;SDS011;9149;47.002;8.604;2023-01-08T07:50:42;4.77;;;1.93;;
18048;SDS011;9149;47.002;8.604;2023-01-08T07:53:10;2.90;;;1.77;;
18048;SDS011;9149;47.002;8.604;2023-01-08T07:55:39;2.13;;;1.50;;
18048;SDS011;9149;47.002;8.604;2023-01-08T07:58:07;5.63;;;1.67;;
18048;SDS011;9149;47.002;8.604;2023-01-08T08:00:35;4.53;;;1.70;;
18048;SDS011;9149;47.002;8.604;2023-01-08T08:03:03;2.47;;;1.63;;
18048;SDS011;9149;47.002;8.604;2023-01-08T08:05:32;1.93;;;1.70;;
18048;SDS011;9149;47.002;8.604;2023-01-08T08:08:01;2.53;;;1.77;;
18048;SDS011;9149;47.002;8.604;2023-01-08T08:10:28;3.63;;;1.90;;
18048;SDS011;9149;47.002;8.604;2023-01-08T08:12:56;3.40;;;2.40;;
18048;SDS011;9149;47.002;8.604;2023-01-08T08:15:24;2.67;;;1.93;;
18048;SDS011;9149;47.002;8.604;2023-01-08T08:17:51;3.53;;;2.00;;
18048;SDS011;9149;47.002;8.604;2023-01-08T08:20:19;3.67;;;1.97;;
18048;SDS011;9149;47.002;8.604;2023-01-08T08:22:47;2.67;;;1.80;;
18048;SDS011;9149;47.002;8.604;2023-01-08T08:25:16;3.40;;;2.27;;
18048;SDS011;9149;47.002;8.604;2023-01-08T08:27:44;5.40;;;2.33;;
18048;SDS011;9149;47.002;8.604;2023-01-08T08:30:12;2.87;;;2.20;;
18048;SDS011;9149;47.002;8.604;2023-01-08T08:32:40;2.27;;;1.70;;
18048;SDS011;9149;47.002;8.604;2023-01-08T08:35:08;4.50;;;2.50;;
18048;SDS011;9149;47.002;8.604;2023-01-08T08:37:35;3.53;;;2.10;;
18048;SDS011;9149;47.002;8.604;2023-01-08T08:40:03;3.93;;;2.23;;
18048;SDS011;9149;47.002;8.604;2023-01-08T08:42:32;2.47;;;2.07;;
18048;SDS011;9149;47.002;8.604;2023-01-08T08:45:00;3.40;;;1.90;;
18048;SDS011;9149;47.002;8.604;2023-01-08T08:47:28;4.03;;;2.80;;
18048;SDS011;9149;47.002;8.604;2023-01-08T16:06:53;5.70;;;3.10;;
18048;SDS011;9149;47.002;8.604;2023-01-08T16:09:20;7.97;;;3.13;;
18048;SDS011;9149;47.002;8.604;2023-01-08T16:11:48;5.97;;;3.27;;
18048;SDS011;9149;47.002;8.604;2023-01-08T16:14:16;7.57;;;3.67;;
18048;SDS011;9149;47.002;8.604;2023-01-08T16:16:44;6.27;;;3.23;;
18048;SDS011;9149;47.002;8.604;2023-01-08T16:19:12;5.17;;;3.27;;
18048;SDS011;9149;47.002;8.604;2023-01-08T16:21:39;6.77;;;3.63;;
18048;SDS011;9149;47.002;8.604;2023-01-08T16:24:13;4.83;;;3.27;;
18048;SDS011;9149;47.002;8.604;2023-01-08T16:26:41;6.57;;;3.70;;
18048;SDS011;9149;47.002;8.604;2023-01-08T16:29:26;7.40;;;4.30;;
18048;SDS011;9149;47.002;8.604;2023-01-08T16:31:54;6.17;;;3.50;;
18048;SDS011;9149;47.002;8.604;2023-01-08T16:34:22;5.23;;;3.47;;
18048;SDS011;9149;47.002;8.604;2023-01-08T16:36:50;5.00;;;3.10;;
18048;SDS011;9149;47.002;8.604;2023-01-08T16:39:19;6.33;;;3.70;;
18048;SDS011;9149;47.002;8.604;2023-01-08T16:41:47;4.60;;;3.27;;
18048;SDS011;9149;47.002;8.604;2023-01-08T16:44:16;8.03;;;3.57;;
18048;SDS011;9149;47.002;8.604;2023-01-08T16:46:44;4.53;;;3.10;;
18048;SDS011;9149;47.002;8.604;2023-01-08T16:49:12;6.00;;;3.33;;
18048;SDS011;9149;47.002;8.604;2023-01-08T16:51:40;6.97;;;3.53;;
18048;SDS011;9149;47.002;8.604;2023-01-08T16:54:09;6.37;;;3.23;;
18048;SDS011;9149;47.002;8.604;2023-01-08T16:56:39;5.57;;;3.13;;
18048;SDS011;9149;47.002;8.604;2023-01-08T16:59:06;5.60;;;3.37;;
18048;SDS011;9149;47.002;8.604;2023-01-08T17:01:48;5.00;;;3.07;;
18048;SDS011;9149;47.002;8.604;2023-01-08T17:04:16;10.63;;;3.07;;
18048;SDS011;9149;47.002;8.604;2023-01-08T17:06:44;5.80;;;3.00;;
18048;SDS011;9149;47.002;8.604;2023-01-08T17:09:13;5.83;;;3.40;;
18048;SDS011;9149;47.002;8.604;2023-01-08T17:11:42;6.07;;;3.23;;
18048;SDS011;9149;47.002;8.604;2023-01-08T17:14:11;5.57;;;3.47;;
18048;SDS011;9149;47.002;8.604;2023-01-08T17:16:39;11.93;;;5.60;;
18048;SDS011;9149;47.002;8.604;2023-01-08T17:19:08;6.70;;;3.37;;
18048;SDS011;9149;47.002;8.604;2023-01-08T17:21:36;6.50;;;3.97;;
18048;SDS011;9149;47.002;8.604;2023-01-08T17:24:04;9.87;;;4.20;;
18048;SDS011;9149;47.002;8.604;2023-01-08T17:26:31;4.90;;;3.20;;
18048;SDS011;9149;47.002;8.604;2023-01-08T17:29:00;5.03;;;3.00;;
18048;SDS011;9149;47.002;8.604;2023-01-08T17:31:28;5.23;;;3.07;;
18048;SDS011;9149;47.002;8.604;2023-01-08T17:34:02;5.47;;;3.07;;
18048;SDS011;9149;47.002;8.604;2023-01-08T17:36:29;7.10;;;3.17;;
18048;SDS011;9149;47.002;8.604;2023-01-08T17:38:59;5.50;;;3.33;;
18048;SDS011;9149;47.002;8.604;2023-01-08T17:41:27;4.53;;;3.10;;
18048;SDS011;9149;47.002;8.604;2023-01-08T17:44:10;4.03;;;2.93;;
18048;SDS011;9149;47.002;8.604;2023-01-08T17:46:39;4.70;;;2.87;;
18048;SDS011;9149;47.002;8.604;2023-01-08T17:49:07;4.90;;;3.27;;
18048;SDS011;9149;47.002;8.604;2023-01-08T17:51:36;6.50;;;3.40;;
18048;SDS011;9149;47.002;8.604;2023-01-08T17:54:06;5.97;;;3.20;;
18048;SDS011;9149;47.002;8.604;2023-01-08T17:56:34;4.93;;;3.37;;
18048;SDS011;9149;47.002;8.604;2023-01-08T17:59:02;6.97;;;3.60;;
18048;SDS011;9149;47.002;8.604;2023-01-08T18:01:31;7.07;;;3.70;;
18048;SDS011;9149;47.002;8.604;2023-01-08T18:04:00;6.77;;;3.70;;
18048;SDS011;9149;47.002;8.604;2023-01-08T18:06:28;10.83;;;5.67;;
18048;SDS011;9149;47.002;8.604;2023-01-08T18:08:56;9.73;;;4.30;;
18048;SDS011;9149;47.002;8.604;2023-01-08T18:11:24;8.30;;;4.17;;
18048;SDS011;9149;47.002;8.604;2023-01-08T18:13:55;8.97;;;4.50;;
18048;SDS011;9149;47.002;8.604;2023-01-08T18:16:23;8.00;;;4.67;;
18048;SDS011;9149;47.002;8.604;2023-01-08T18:18:54;12.10;;;4.10;;
18048;SDS011;9149;47.002;8.604;2023-01-08T18:21:22;7.27;;;3.87;;
18048;SDS011;9149;47.002;8.604;2023-01-08T18:23:49;6.47;;;3.40;;
18048;SDS011;9149;47.002;8.604;2023-01-08T18:26:18;9.77;;;4.53;;
18048;SDS011;9149;47.002;8.604;2023-01-08T18:28:46;5.97;;;3.80;;
18048;SDS011;9149;47.002;8.604;2023-01-08T18:31:14;5.47;;;3.37;;
18048;SDS011;9149;47.002;8.604;2023-01-08T18:33:42;10.37;;;4.67;;
18048;SDS011;9149;47.002;8.604;2023-01-08T18:36:11;12.57;;;4.80;;
18048;SDS011;9149;47.002;8.604;2023-01-08T18:38:40;8.00;;;4.97;;
18048;SDS011;9149;47.002;8.604;2023-01-08T18:41:09;6.83;;;4.10;;
18048;SDS011;9149;47.002;8.604;2023-01-08T18:43:37;9.07;;;4.47;;
18048;SDS011;9149;47.002;8.604;2023-01-08T18:46:05;9.93;;;4.63;;
18048;SDS011;9149;47.002;8.604;2023-01-08T18:48:33;7.77;;;4.73;;
18048;SDS011;9149;47.002;8.604;2023-01-08T18:51:01;8.73;;;4.70;;
18048;SDS011;9149;47.002;8.604;2023-01-08T18:53:32;12.13;;;5.33;;
18048;SDS011;9149;47.002;8.604;2023-01-08T18:56:00;15.50;;;4.70;;
18048;SDS011;9149;47.002;8.604;2023-01-08T18:58:28;5.73;;;4.17;;
18048;SDS011;9149;47.002;8.604;2023-01-08T19:01:00;6.20;;;3.93;;
18048;SDS011;9149;47.002;8.604;2023-01-08T19:03:28;5.63;;;3.73;;
18048;SDS011;9149;47.002;8.604;2023-01-08T19:05:56;10.10;;;4.67;;
18048;SDS011;9149;47.002;8.604;2023-01-08T19:08:24;5.63;;;3.87;;
18048;SDS011;9149;47.002;8.604;2023-01-08T19:10:53;8.43;;;3.50;;
18048;SDS011;9149;47.002;8.604;2023-01-08T19:13:21;8.03;;;4.00;;
18048;SDS011;9149;47.002;8.604;2023-01-08T19:15:49;9.73;;;4.13;;
18048;SDS011;9149;47.002;8.604;2023-01-08T19:18:16;14.83;;;4.40;;
18048;SDS011;9149;47.002;8.604;2023-01-08T19:20:46;7.50;;;4.23;;
18048;SDS011;9149;47.002;8.604;2023-01-08T19:23:15;5.70;;;3.70;;
18048;SDS011;9149;47.002;8.604;2023-01-08T19:25:43;6.97;;;4.40;;
18048;SDS011;9149;47.002;8.604;2023-01-08T19:28:12;7.90;;;4.17;;
18048;SDS011;9149;47.002;8.604;2023-01-08T19:30:40;9.67;;;4.10;;
18048;SDS011;9149;47.002;8.604;2023-01-08T19:33:07;6.67;;;4.03;;
18048;SDS011;9149;47.002;8.604;2023-01-08T19:35:36;6.83;;;3.67;;
18048;SDS011;9149;47.002;8.604;2023-01-08T19:38:04;6.10;;;3.47;;
18048;SDS011;9149;47.002;8.604;2023-01-08T19:40:32;5.97;;;3.67;;
18048;SDS011;9149;47.002;8.604;2023-01-08T19:43:00;6.57;;;4.00;;
18048;SDS011;9149;47.002;8.604;2023-01-08T19:45:38;7.37;;;4.40;;
18048;SDS011;9149;47.002;8.604;2023-01-08T19:48:05;6.30;;;3.97;;
18048;SDS011;9149;47.002;8.604;2023-01-08T19:50:35;7.10;;;3.97;;
18048;SDS011;9149;47.002;8.604;2023-01-08T19:53:03;7.00;;;4.40;;
18048;SDS011;9149;47.002;8.604;2023-01-08T19:55:33;8.27;;;4.77;;
18048;SDS011;9149;47.002;8.604;2023-01-08T19:58:01;10.13;;;4.90;;
18048;SDS011;9149;47.002;8.604;2023-01-08T20:00:29;8.97;;;5.13;;
18048;SDS011;9149;47.002;8.604;2023-01-08T20:03:04;8.63;;;4.43;;
18048;SDS011;9149;47.002;8.604;2023-01-08T20:05:32;9.27;;;4.33;;
18048;SDS011;9149;47.002;8.604;2023-01-08T20:07:59;7.23;;;4.17;;
18048;SDS011;9149;47.002;8.604;2023-01-08T20:10:27;6.13;;;3.83;;
18048;SDS011;9149;47.002;8.604;2023-01-08T20:12:55;8.47;;;4.40;;
18048;SDS011;9149;47.002;8.604;2023-01-08T20:15:22;10.80;;;4.77;;
18048;SDS011;9149;47.002;8.604;2023-01-08T20:17:50;8.83;;;4.70;;
18048;SDS011;9149;47.002;8.604;2023-01-08T20:20:19;9.63;;;5.23;;
18048;SDS011;9149;47.002;8.604;2023-01-08T20:22:47;10.50;;;4.80;;
18048;SDS011;9149;47.002;8.604;2023-01-08T20:25:15;9.03;;;5.30;;
18048;SDS011;9149;47.002;8.604;2023-01-08T20:27:43;9.37;;;4.37;;
18048;SDS011;9149;47.002;8.604;2023-01-08T20:30:10;11.27;;;4.57;;
18048;SDS011;9149;47.002;8.604;2023-01-08T20:32:40;9.70;;;5.33;;
18048;SDS011;9149;47.002;8.604;2023-01-08T20:35:08;8.73;;;4.60;;
18048;SDS011;9149;47.002;8.604;2023-01-08T20:37:37;13.57;;;6.00;;
18048;SDS011;9149;47.002;8.604;2023-01-08T20:40:05;10.63;;;5.20;;
18048;SDS011;9149;47.002;8.604;2023-01-08T20:42:33;10.30;;;5.50;;
18048;SDS011;9149;47.002;8.604;2023-01-08T20:45:00;7.73;;;4.23;;
18048;SDS011;9149;47.002;8.604;2023-01-08T20:47:28;8.37;;;4.40;;
18048;SDS011;9149;47.002;8.604;2023-01-08T20:49:56;7.53;;;4.47;;
18048;SDS011;9149;47.002;8.604;2023-01-08T20:52:27;11.60;;;3.50;;
18048;SDS011;9149;47.002;8.604;2023-01-08T20:54:56;5.37;;;3.63;;
18048;SDS011;9149;47.002;8.604;2023-01-08T20:57:24;6.17;;;3.70;;
18048;SDS011;9149;47.002;8.604;2023-01-08T20:59:53;5.77;;;3.60;;
18048;SDS011;9149;47.002;8.604;2023-01-08T21:02:21;6.93;;;3.80;;
18048;SDS011;9149;47.002;8.604;2023-01-08T21:04:49;6.53;;;4.20;;
18048;SDS011;9149;47.002;8.604;2023-01-08T21:07:16;7.57;;;3.97;;
18048;SDS011;9149;47.002;8.604;2023-01-08T21:09:44;12.93;;;5.03;;
18048;SDS011;9149;47.002;8.604;2023-01-08T21:12:13;7.80;;;4.73;;
18048;SDS011;9149;47.002;8.604;2023-01-08T21:14:41;7.13;;;4.13;;
18048;SDS011;9149;47.002;8.604;2023-01-08T21:17:09;7.93;;;4.47;;
18048;SDS011;9149;47.002;8.604;2023-01-08T21:19:36;7.77;;;4.13;;
18048;SDS011;9149;47.002;8.604;2023-01-08T21:22:04;8.67;;;4.30;;
18048;SDS011;9149;47.002;8.604;2023-01-08T21:24:32;7.57;;;4.30;;
18048;SDS011;9149;47.002;8.604;2023-01-08T21:26:59;6.90;;;3.87;;
18048;SDS011;9149;47.002;8.604;2023-01-08T21:29:29;10.33;;;4.73;;
18048;SDS011;9149;47.002;8.604;2023-01-08T21:31:57;8.83;;;4.10;;
18048;SDS011;9149;47.002;8.604;2023-01-08T21:34:25;11.03;;;4.97;;
18048;SDS011;9149;47.002;8.604;2023-01-08T21:36:52;8.10;;;4.70;;
18048;SDS011;9149;47.002;8.604;2023-01-08T21:39:20;7.27;;;4.90;;
18048;SDS011;9149;47.002;8.604;2023-01-08T21:41:48;8.90;;;4.80;;
18048;SDS011;9149;47.002;8.604;2023-01-08T21:44:25;11.50;;;4.47;;
18048;SDS011;9149;47.002;8.604;2023-01-08T21:47:06;8.23;;;4.23;;
18048;SDS011;9149;47.002;8.604;2023-01-08T21:49:34;7.37;;;4.43;;
18048;SDS011;9149;47.002;8.604;2023-01-08T21:52:02;6.63;;;4.37;;
18048;SDS011;9149;47.002;8.604;2023-01-08T21:54:41;9.13;;;5.13;;
18048;SDS011;9149;47.002;8.604;2023-01-08T21:57:08;8.53;;;4.70;;
18048;SDS011;9149;47.002;8.604;2023-01-08T21:59:36;6.53;;;4.47;;
18048;SDS011;9149;47.002;8.604;2023-01-08T22:02:05;8.30;;;4.67;;
18048;SDS011;9149;47.002;8.604;2023-01-08T22:04:33;8.73;;;5.10;;
18048;SDS011;9149;47.002;8.604;2023-01-08T22:07:00;9.37;;;4.40;;
18048;SDS011;9149;47.002;8.604;2023-01-08T22:09:28;10.13;;;4.90;;
18048;SDS011;9149;47.002;8.604;2023-01-08T22:11:56;8.83;;;4.77;;
18048;SDS011;9149;47.002;8.604;2023-01-08T22:14:23;12.00;;;4.60;;
18048;SDS011;9149;47.002;8.604;2023-01-08T22:16:51;9.67;;;4.83;;
18048;SDS011;9149;47.002;8.604;2023-01-08T22:19:20;8.33;;;4.57;;
18048;SDS011;9149;47.002;8.604;2023-01-08T22:21:48;8.53;;;4.40;;
18048;SDS011;9149;47.002;8.604;2023-01-08T22:24:15;10.37;;;5.23;;
18048;SDS011;9149;47.002;8.604;2023-01-08T22:26:43;8.20;;;4.67;;
18048;SDS011;9149;47.002;8.604;2023-01-08T22:29:11;10.23;;;5.17;;